Portsoy, United Kingdom
Current Conditions -  °F | °C
As of 5:50 AM on Wednesday 22 Oct 2014 (Local Time) from EGQS Reporting Station
Scattered Clouds Scattered Clouds  
Wind Chill:   Ceiling: Unl
Heat Index:   Visibility: 6mi
Dew Point:   Wind: 13mph
Humidity: 87%   Direction: 250°WSW
Pressure: 29.94"   Gusts: NA
Location:  57.68°N, 2.69°W
Report Text: EGQS 220450Z 25011KT 9999 FEW030 SCT300 06/04 Q1014 BLU
Loading
Personal Weather Stations






























Interactive Weather Map
Tropical Storm Tracking
New forecast layout! Learn more

10-Day Weather Forecast

Advertisements
Track Severe Weather on mobile